createdAt,value
2022-09-15T00:05:02.695Z,13.90
2022-09-15T00:10:07.716Z,14.90
2022-09-15T00:15:14.888Z,13.40
2022-09-15T00:20:19.983Z,13.70
2022-09-15T00:25:22.814Z,12.60
2022-09-15T00:30:25.807Z,16.00
2022-09-15T00:35:28.721Z,16.20
2022-09-15T00:40:31.648Z,13.60
2022-09-15T00:45:34.573Z,14.00
2022-09-15T00:50:39.760Z,13.00
2022-09-15T00:55:47.480Z,13.10
2022-09-15T01:01:09.312Z,17.70
2022-09-15T01:06:14.404Z,13.80
2022-09-15T01:11:17.889Z,13.00
2022-09-15T01:22:20.024Z,12.50
2022-09-15T01:27:42.692Z,12.30
2022-09-15T01:33:04.344Z,13.20
2022-09-15T01:38:32.455Z,13.60
2022-09-15T01:43:42.938Z,11.70
2022-09-15T01:53:52.852Z,12.40
2022-09-15T01:58:55.751Z,16.80
2022-09-15T02:04:09.198Z,12.40
2022-09-15T02:09:27.156Z,16.80
2022-09-15T02:14:56.129Z,15.10
2022-09-15T02:20:16.790Z,12.40
2022-09-15T02:25:30.760Z,11.40
2022-09-15T02:30:37.993Z,11.90
2022-09-15T02:35:42.373Z,12.40
2022-09-15T02:40:45.404Z,13.20
2022-09-15T02:45:49.842Z,11.40
2022-09-15T02:50:52.687Z,15.20
2022-09-15T02:55:55.555Z,13.10
2022-09-15T03:00:58.500Z,16.10
2022-09-15T03:06:17.027Z,10.60
2022-09-15T03:11:23.410Z,12.10
2022-09-15T03:16:27.957Z,14.70
2022-09-15T03:21:30.959Z,17.00
2022-09-15T03:26:33.861Z,12.90
2022-09-15T03:31:36.877Z,12.20
2022-09-15T03:36:39.880Z,15.50
2022-09-15T03:41:42.778Z,13.90
2022-09-15T03:46:45.997Z,11.60
2022-09-15T03:51:48.893Z,19.30
2022-09-15T03:56:52.309Z,14.50
2022-09-15T04:01:55.188Z,15.00
2022-09-15T04:06:58.220Z,19.00
2022-09-15T04:12:01.126Z,17.20
2022-09-15T04:17:04.230Z,17.90
2022-09-15T04:22:07.135Z,27.70
2022-09-15T04:27:10.243Z,16.00
2022-09-15T04:32:13.054Z,17.80
2022-09-15T04:37:15.952Z,24.20
2022-09-15T04:42:21.113Z,20.80
2022-09-15T04:47:24.008Z,25.90
2022-09-15T04:52:26.914Z,22.90
2022-09-15T04:57:29.821Z,22.70
2022-09-15T05:02:33.542Z,19.80
2022-09-15T05:07:36.548Z,21.30
2022-09-15T05:12:39.457Z,21.80
2022-09-15T05:17:42.367Z,20.50
2022-09-15T05:22:46.085Z,21.60
2022-09-15T05:27:48.881Z,23.50
2022-09-15T05:32:53.597Z,23.80
2022-09-15T05:37:57.247Z,25.40
2022-09-15T05:43:00.151Z,23.90
2022-09-15T05:48:04.143Z,29.30
2022-09-15T05:53:07.676Z,26.30
2022-09-15T05:58:11.123Z,24.20
2022-09-15T06:03:15.556Z,21.00
2022-09-15T06:08:18.462Z,17.20
2022-09-15T06:13:21.362Z,15.30
2022-09-15T06:18:24.265Z,14.90
2022-09-15T06:23:27.178Z,13.60
2022-09-15T06:28:29.955Z,13.20
2022-09-15T06:33:32.875Z,11.30
2022-09-15T06:38:35.678Z,9.60
2022-09-15T06:43:39.317Z,12.80
2022-09-15T06:48:45.249Z,8.70
2022-09-15T06:53:51.681Z,8.80
2022-09-15T06:58:58.032Z,10.50
2022-09-15T07:04:09.989Z,9.50
2022-09-15T07:09:13.580Z,11.10
2022-09-15T07:14:16.381Z,12.60
2022-09-15T07:19:19.594Z,13.90
2022-09-15T07:24:22.395Z,8.80
2022-09-15T07:29:25.402Z,11.80
2022-09-15T07:34:29.635Z,9.80
2022-09-15T07:39:33.364Z,10.90
2022-09-15T07:44:36.470Z,11.50
2022-09-15T07:49:39.476Z,8.90
2022-09-15T07:54:42.381Z,10.90
2022-09-15T07:59:45.291Z,7.50
2022-09-15T08:04:49.007Z,5.10
2022-09-15T08:09:52.012Z,5.70
2022-09-15T08:14:54.813Z,7.10
2022-09-15T08:19:57.613Z,4.90
2022-09-15T08:25:00.620Z,4.80
2022-09-15T08:30:05.039Z,4.10
2022-09-15T08:35:11.551Z,5.40
2022-09-15T08:40:22.486Z,3.60
2022-09-15T08:45:34.047Z,6.30
2022-09-15T08:50:47.805Z,6.90
2022-09-15T08:55:54.271Z,6.80
2022-09-15T09:01:29.722Z,8.00
2022-09-15T09:06:51.508Z,4.80
2022-09-15T09:12:15.819Z,3.60
2022-09-15T09:17:57.936Z,5.90
2022-09-15T09:23:04.118Z,6.50
2022-09-15T09:28:20.435Z,7.50
2022-09-15T09:33:47.935Z,4.50
2022-09-15T09:38:51.438Z,5.20
2022-09-15T09:43:56.671Z,5.90
2022-09-15T09:49:10.802Z,5.90
2022-09-15T09:54:23.083Z,7.60
2022-09-15T09:59:34.694Z,7.10
2022-09-15T10:04:43.203Z,12.00
2022-09-15T10:09:58.423Z,7.80
2022-09-15T10:15:07.773Z,6.40
2022-09-15T10:20:35.721Z,5.40
2022-09-15T10:31:04.018Z,7.20
2022-09-15T10:36:24.518Z,6.10
2022-09-15T10:41:35.205Z,12.00
2022-09-15T10:46:59.583Z,6.40
2022-09-15T10:52:18.299Z,10.40
2022-09-15T10:58:02.457Z,10.70
2022-09-15T11:03:26.253Z,12.90
2022-09-15T11:08:47.895Z,6.20
2022-09-15T11:14:07.491Z,6.30
2022-09-15T11:19:32.000Z,6.50
2022-09-15T11:24:48.524Z,5.90
2022-09-15T11:30:09.558Z,5.80
2022-09-15T11:35:35.407Z,6.50
2022-09-15T11:41:03.490Z,6.30
2022-09-15T11:46:11.975Z,6.10
2022-09-15T11:51:20.672Z,6.00
2022-09-15T11:56:37.097Z,5.70
2022-09-15T12:01:46.085Z,5.80
2022-09-15T12:06:55.436Z,5.30
2022-09-15T12:12:06.076Z,6.60
2022-09-15T12:17:18.684Z,4.50
2022-09-15T12:23:04.590Z,3.50
2022-09-15T12:28:22.574Z,6.60
2022-09-15T12:33:56.894Z,4.50
2022-09-15T12:39:01.011Z,8.10
2022-09-15T12:44:21.977Z,7.70
2022-09-15T12:49:35.630Z,5.70
2022-09-15T12:54:42.786Z,2.20
2022-09-15T12:59:45.944Z,5.10
2022-09-15T13:04:54.495Z,7.20
2022-09-15T13:10:16.857Z,2.70
2022-09-15T13:15:22.513Z,5.20
2022-09-15T13:20:33.608Z,5.20
2022-09-15T13:25:40.782Z,4.40
2022-09-15T13:31:14.796Z,5.70
2022-09-15T13:42:32.644Z,11.20
2022-09-15T13:47:47.027Z,7.50
2022-09-15T13:53:11.431Z,6.50
2022-09-15T14:03:45.657Z,7.00
2022-09-15T14:08:56.484Z,8.10
2022-09-15T14:14:03.416Z,8.30
2022-09-15T14:19:40.075Z,6.00
2022-09-15T14:24:43.279Z,3.70
2022-09-15T14:29:50.341Z,9.10
2022-09-15T14:34:55.349Z,5.00
2022-09-15T14:40:00.656Z,2.50
2022-09-15T14:50:42.118Z,3.50
2022-09-15T14:55:57.239Z,5.20
2022-09-15T15:01:30.450Z,4.10
2022-09-15T15:06:51.648Z,3.80
2022-09-15T15:12:00.745Z,5.40
2022-09-15T15:17:08.689Z,4.60
2022-09-15T15:22:14.439Z,4.50
2022-09-15T15:27:32.591Z,2.70
2022-09-15T15:32:35.596Z,2.50
2022-09-15T15:37:38.501Z,1.80
2022-09-15T15:43:02.347Z,4.60
2022-09-15T15:48:06.718Z,2.70
2022-09-15T15:53:09.656Z,3.30
2022-09-15T15:58:13.671Z,2.40
2022-09-15T16:03:18.086Z,4.60
2022-09-15T16:08:24.463Z,3.50
2022-09-15T16:13:28.593Z,5.10
2022-09-15T16:18:31.534Z,2.70
2022-09-15T16:23:34.541Z,2.90
2022-09-15T16:28:37.956Z,2.60
2022-09-15T16:33:42.606Z,3.50
2022-09-15T16:38:45.790Z,3.20
2022-09-15T16:43:49.397Z,2.80
2022-09-15T16:48:52.256Z,5.50
2022-09-15T16:53:55.149Z,3.70
2022-09-15T16:59:00.416Z,2.70
2022-09-15T17:04:09.204Z,5.60
2022-09-15T17:09:12.261Z,16.70
2022-09-15T17:14:18.721Z,13.10
2022-09-15T17:19:24.191Z,20.10
2022-09-15T17:24:27.410Z,11.40
2022-09-15T17:29:30.245Z,8.40
2022-09-15T17:34:33.117Z,4.70
2022-09-15T17:39:36.231Z,8.30
2022-09-15T17:44:39.231Z,4.90
2022-09-15T17:49:42.136Z,9.30
2022-09-15T17:54:45.039Z,13.30
2022-09-15T17:59:47.955Z,19.40
2022-09-15T18:04:51.047Z,79.10
2022-09-15T18:09:55.180Z,54.10
2022-09-15T18:14:58.290Z,46.20
2022-09-15T18:20:01.603Z,76.00
2022-09-15T18:25:05.176Z,30.50
2022-09-15T18:30:09.114Z,55.60
2022-09-15T18:35:18.324Z,38.00
2022-09-15T18:40:22.459Z,20.40
2022-09-15T18:45:26.296Z,34.70
2022-09-15T18:50:29.257Z,13.50
2022-09-15T18:55:32.762Z,15.90
2022-09-15T19:00:36.795Z,7.40
2022-09-15T19:05:40.235Z,9.60
2022-09-15T19:10:44.481Z,7.00
2022-09-15T19:15:49.229Z,7.40
2022-09-15T19:20:54.373Z,4.40
2022-09-15T19:25:57.276Z,7.10
2022-09-15T19:31:04.061Z,6.80
2022-09-15T19:36:27.296Z,9.30
2022-09-15T19:41:32.246Z,6.70
2022-09-15T19:46:35.116Z,5.10
2022-09-15T19:51:38.459Z,6.00
2022-09-15T19:56:41.323Z,7.60
2022-09-15T20:01:44.642Z,5.40
2022-09-15T20:06:48.051Z,5.60
2022-09-15T20:11:51.062Z,7.00
2022-09-15T20:16:56.214Z,6.30
2022-09-15T20:22:01.987Z,4.40
2022-09-15T20:27:05.107Z,8.60
2022-09-15T20:32:08.105Z,6.80
2022-09-15T20:37:11.937Z,9.00
2022-09-15T20:42:14.938Z,6.50
2022-09-15T20:47:17.954Z,6.10
2022-09-15T20:52:20.845Z,6.80
2022-09-15T20:57:24.064Z,7.10
2022-09-15T21:02:27.081Z,5.70
2022-09-15T21:07:30.071Z,6.80
2022-09-15T21:12:34.202Z,8.00
2022-09-15T21:17:37.220Z,6.30
2022-09-15T21:22:41.241Z,6.00
2022-09-15T21:27:46.409Z,5.40
2022-09-15T21:32:49.301Z,4.50
2022-09-15T21:37:52.105Z,5.80
2022-09-15T21:42:55.127Z,4.60
2022-09-15T21:47:58.014Z,5.60
2022-09-15T21:53:00.813Z,5.50
2022-09-15T21:58:03.717Z,5.00
2022-09-15T22:03:07.115Z,6.10
2022-09-15T22:08:11.369Z,3.60
2022-09-15T22:13:14.273Z,8.10
2022-09-15T22:18:17.986Z,5.70
2022-09-15T22:23:21.106Z,5.30
2022-09-15T22:28:23.996Z,5.60
2022-09-15T22:33:27.122Z,6.70
2022-09-15T22:38:30.736Z,5.30
2022-09-15T22:43:33.846Z,5.90
2022-09-15T22:48:41.135Z,8.20
2022-09-15T22:53:46.347Z,3.60
2022-09-15T22:58:50.545Z,6.10
2022-09-15T23:03:59.505Z,7.30
2022-09-15T23:09:06.951Z,3.90
2022-09-15T23:14:15.447Z,4.30
2022-09-15T23:19:18.340Z,4.40
2022-09-15T23:24:21.249Z,4.00
2022-09-15T23:29:26.402Z,3.60
2022-09-15T23:34:29.407Z,4.20
2022-09-15T23:39:32.316Z,6.20
2022-09-15T23:44:35.219Z,4.40
2022-09-15T23:49:38.120Z,3.80
2022-09-15T23:54:40.923Z,6.30
2022-09-15T23:59:44.041Z,6.10
